Time;durP1;ratioP1;P1;durP2;ratioP2;P2;SDS_P1;SDS_P2;PMS_P1;PMS_P2;Temp;Humidity;BMP_temperature;BMP_pressure;BME280_temperature;BME280_humidity;BME280_pressure;Samples;Min_cycle;Max_cycle;Signal;HPM_P1;HPM_P2
2024/04/01 00:01:37;;;;;;;;;;;;;;;15.58;58.82;97702.78;4177158;28;19928;-71
2024/04/01 00:03:38;;;;;;;;;;;;;;;15.53;59.07;97701.84;4151382;28;20435;-71
2024/04/01 00:05:38;;;;;;;;;;;;;;;15.48;59.82;97707.94;4146242;28;19909;-72
2024/04/01 00:07:39;;;;;;;;;;;;;;;15.51;59.33;97707.47;4152840;28;19917;-71
2024/04/01 00:09:39;;;;;;;;;;;;;;;15.46;59.64;97693.06;4150405;28;19918;-71
2024/04/01 00:11:39;;;;;;;;;;;;;;;15.24;59.99;97681.00;4158217;28;20281;-71
2024/04/01 00:13:39;;;;;;;;;;;;;;;15.11;60.55;97670.47;4149350;28;20622;-72
2024/04/01 00:15:40;;;;;;;;;;;;;;;15.08;61.04;97674.44;4145685;28;19960;-71
2024/04/01 00:17:41;;;;;;;;;;;;;;;15.03;61.19;97668.91;4146014;28;20436;-71
2024/04/01 00:19:41;;;;;;;;;;;;;;;15.01;61.39;97656.75;4153473;28;19921;-72
2024/04/01 00:21:42;;;;;;;;;;;;;;;15.17;61.23;97647.19;4144700;28;19916;-71
2024/04/01 00:23:48;;;;;;;;;;;;;;;15.19;60.62;97637.00;4145982;28;19921;-72
2024/04/01 00:25:49;;;;;;;;;;;;;;;15.26;60.58;97653.84;4147716;28;19996;-72
2024/04/01 00:27:49;;;;;;;;;;;;;;;15.32;60.00;97655.59;4146142;28;20000;-71
2024/04/01 00:29:49;;;;;;;;;;;;;;;15.22;60.47;97641.91;4145124;28;19976;-71
2024/04/01 00:31:50;;;;;;;;;;;;;;;15.15;60.29;97633.13;4147313;28;19913;-72
2024/04/01 00:33:50;;;;;;;;;;;;;;;15.13;60.44;97626.13;4153911;28;19940;-71
2024/04/01 00:35:50;;;;;;;;;;;;;;;15.19;60.40;97615.47;4153840;28;19920;-71
2024/04/01 00:37:51;;;;;;;;;;;;;;;15.09;60.56;97603.44;4153307;28;20329;-72
2024/04/01 00:39:51;;;;;;;;;;;;;;;15.09;61.01;97603.44;4150077;28;20384;-72
2024/04/01 00:41:51;;;;;;;;;;;;;;;15.21;60.54;97594.53;4153441;28;19924;-72
2024/04/01 00:43:53;;;;;;;;;;;;;;;15.31;59.97;97594.75;4149618;28;19913;-72
2024/04/01 00:45:53;;;;;;;;;;;;;;;15.23;60.00;97603.19;4146002;28;19917;-72
2024/04/01 00:47:53;;;;;;;;;;;;;;;15.20;59.97;97601.78;4145313;28;19998;-71
2024/04/01 00:49:54;;;;;;;;;;;;;;;15.08;60.15;97591.03;4146263;28;19923;-71
2024/04/01 00:51:54;;;;;;;;;;;;;;;15.01;60.17;97584.94;4148207;28;19913;-71
2024/04/01 00:53:55;;;;;;;;;;;;;;;15.13;59.89;97582.25;4154133;28;19976;-72
2024/04/01 00:55:55;;;;;;;;;;;;;;;15.17;59.65;97574.53;4153147;28;19966;-71
2024/04/01 00:57:57;;;;;;;;;;;;;;;15.23;59.49;97568.19;4147176;28;19913;-73
2024/04/01 00:59:57;;;;;;;;;;;;;;;15.19;59.86;97567.03;4149527;28;20301;-71
2024/04/01 01:01:57;;;;;;;;;;;;;;;14.89;60.56;97571.47;4153392;28;19913;-72
2024/04/01 01:03:59;;;;;;;;;;;;;;;15.01;60.61;97573.34;4163249;28;19913;-72
2024/04/01 01:05:59;;;;;;;;;;;;;;;14.98;60.64;97569.28;4163414;28;19949;-72
2024/04/01 01:08:00;;;;;;;;;;;;;;;14.93;60.94;97561.06;4167136;28;19917;-71
2024/04/01 01:10:00;;;;;;;;;;;;;;;14.84;61.71;97568.69;4160999;28;19917;-71
2024/04/01 01:12:00;;;;;;;;;;;;;;;14.87;61.51;97559.31;4158069;28;19913;-72
2024/04/01 01:14:03;;;;;;;;;;;;;;;15.07;61.03;97524.81;4159238;28;20580;-71
2024/04/01 01:16:03;;;;;;;;;;;;;;;15.01;61.17;97536.53;4149026;28;20007;-72
2024/04/01 01:18:04;;;;;;;;;;;;;;;14.96;61.07;97536.41;4164238;28;20292;-71
2024/04/01 01:20:11;;;;;;;;;;;;;;;15.11;61.15;97506.31;4165346;28;19912;-71
2024/04/01 01:22:14;;;;;;;;;;;;;;;15.07;60.81;97497.06;4162214;28;19909;-71
2024/04/01 01:24:14;;;;;;;;;;;;;;;14.84;61.71;97479.94;4148687;28;20000;-71
2024/04/01 01:26:15;;;;;;;;;;;;;;;14.91;61.55;97477.13;4151161;28;20647;-71
2024/04/01 01:28:15;;;;;;;;;;;;;;;14.88;61.55;97480.28;4158153;28;19910;-71
2024/04/01 01:30:15;;;;;;;;;;;;;;;14.67;62.57;97469.06;4148967;28;20354;-73
2024/04/01 01:32:16;;;;;;;;;;;;;;;14.61;63.36;97470.78;4156921;28;19916;-73
2024/04/01 01:34:16;;;;;;;;;;;;;;;14.74;62.62;97469.75;4165036;28;19913;-72
2024/04/01 01:36:16;;;;;;;;;;;;;;;14.70;63.02;97455.16;4161519;28;20324;-72
2024/04/01 01:38:18;;;;;;;;;;;;;;;14.70;63.31;97449.78;4150641;28;20194;-73
2024/04/01 01:40:19;;;;;;;;;;;;;;;14.81;62.87;97435.50;4173978;28;19958;-71
2024/04/01 01:42:19;;;;;;;;;;;;;;;14.81;62.37;97440.88;4160886;28;20376;-71
2024/04/01 01:44:19;;;;;;;;;;;;;;;14.75;62.40;97441.00;4155923;28;19909;-72
2024/04/01 01:46:19;;;;;;;;;;;;;;;14.56;63.17;97465.28;4160463;28;19909;-71
2024/04/01 01:48:20;;;;;;;;;;;;;;;14.51;63.35;97473.22;4159234;28;20353;-71
2024/04/01 01:50:20;;;;;;;;;;;;;;;14.46;63.68;97479.28;4160176;28;20286;-71
2024/04/01 01:52:21;;;;;;;;;;;;;;;14.48;64.20;97479.09;4157071;28;19910;-71
2024/04/01 01:54:21;;;;;;;;;;;;;;;14.40;64.12;97490.19;4153578;28;19909;-71
2024/04/01 01:56:21;;;;;;;;;;;;;;;14.42;64.20;97472.75;4149782;28;19913;-71
2024/04/01 01:58:22;;;;;;;;;;;;;;;14.45;64.32;97468.78;4154364;28;19913;-71
2024/04/01 02:00:22;;;;;;;;;;;;;;;14.39;64.05;97467.84;4152807;28;19920;-71
2024/04/01 02:02:22;;;;;;;;;;;;;;;14.28;64.36;97479.41;4153088;28;19979;-71
2024/04/01 02:04:23;;;;;;;;;;;;;;;14.25;64.75;97463.75;4148423;28;20493;-71
2024/04/01 02:06:23;;;;;;;;;;;;;;;14.39;64.40;97454.41;4152216;28;20294;-71
2024/04/01 02:08:24;;;;;;;;;;;;;;;14.35;64.82;97437.94;4140459;28;20371;-72
2024/04/01 02:10:25;;;;;;;;;;;;;;;14.46;64.24;97433.59;4147599;28;20406;-71
2024/04/01 02:12:26;;;;;;;;;;;;;;;14.41;64.49;97438.88;4146927;28;20008;-72
2024/04/01 02:14:26;;;;;;;;;;;;;;;14.16;65.34;97434.53;4146155;28;20414;-71
2024/04/01 02:16:26;;;;;;;;;;;;;;;14.33;65.35;97456.16;4147583;28;19959;-71
2024/04/01 02:18:27;;;;;;;;;;;;;;;14.40;65.28;97463.31;4147365;28;20058;-71
2024/04/01 02:20:27;;;;;;;;;;;;;;;14.06;66.05;97458.47;4147357;28;19913;-71
2024/04/01 02:22:27;;;;;;;;;;;;;;;14.12;66.10;97457.53;4147038;28;19955;-72
2024/04/01 02:24:28;;;;;;;;;;;;;;;14.22;65.59;97448.09;4147457;28;19919;-71
2024/04/01 02:26:28;;;;;;;;;;;;;;;14.36;65.29;97449.50;4144282;28;19948;-71
2024/04/01 02:28:30;;;;;;;;;;;;;;;14.45;64.62;97434.66;4147551;28;19917;-71
2024/04/01 02:30:30;;;;;;;;;;;;;;;14.51;64.64;97419.47;4147383;28;20314;-71
2024/04/01 02:32:30;;;;;;;;;;;;;;;14.45;64.57;97412.34;4146947;28;19932;-71
2024/04/01 02:34:31;;;;;;;;;;;;;;;14.48;64.39;97399.25;4155123;28;20456;-71
2024/04/01 02:36:31;;;;;;;;;;;;;;;14.48;64.45;97393.06;4147096;28;19917;-72
2024/04/01 02:38:31;;;;;;;;;;;;;;;14.46;64.43;97395.97;4146528;28;20365;-72
2024/04/01 02:40:31;;;;;;;;;;;;;;;14.43;64.58;97391.09;4147329;28;20056;-72
2024/04/01 02:42:32;;;;;;;;;;;;;;;14.46;64.38;97411.28;4147544;28;20373;-72
2024/04/01 02:44:32;;;;;;;;;;;;;;;14.50;64.44;97415.13;4146891;28;20713;-72
2024/04/01 02:46:32;;;;;;;;;;;;;;;14.43;64.76;97442.16;4147215;28;20520;-72
2024/04/01 02:48:33;;;;;;;;;;;;;;;14.41;64.51;97441.56;4151186;28;19935;-72
2024/04/01 02:50:35;;;;;;;;;;;;;;;14.18;65.37;97464.66;4160427;28;19913;-71
2024/04/01 02:52:35;;;;;;;;;;;;;;;14.17;65.52;97470.28;4148677;28;19956;-72
2024/04/01 02:54:36;;;;;;;;;;;;;;;14.19;65.61;97477.03;4145981;28;19913;-71
2024/04/01 02:56:36;;;;;;;;;;;;;;;14.13;65.69;97502.16;4147126;28;19918;-71
2024/04/01 02:58:36;;;;;;;;;;;;;;;14.19;65.34;97482.41;4143635;28;20289;-71
2024/04/01 03:00:37;;;;;;;;;;;;;;;14.18;65.61;97470.03;4147024;28;19917;-71
2024/04/01 03:02:37;;;;;;;;;;;;;;;14.33;65.28;97460.72;4151447;28;19913;-72
2024/04/01 03:04:37;;;;;;;;;;;;;;;14.28;65.14;97447.16;4147044;28;20033;-71
2024/04/01 03:06:38;;;;;;;;;;;;;;;14.16;65.11;97442.59;4147327;28;19913;-72
2024/04/01 03:08:39;;;;;;;;;;;;;;;14.11;65.83;97436.28;4162275;28;19913;-71
2024/04/01 03:10:39;;;;;;;;;;;;;;;14.19;65.73;97436.75;4163049;28;19927;-71
2024/04/01 03:12:40;;;;;;;;;;;;;;;14.29;65.15;97446.09;4162640;28;19945;-72
2024/04/01 03:14:41;;;;;;;;;;;;;;;14.20;65.41;97441.06;4160311;28;19958;-72
2024/04/01 03:16:41;;;;;;;;;;;;;;;14.14;65.24;97436.63;4160214;28;20046;-71
2024/04/01 03:18:42;;;;;;;;;;;;;;;14.19;65.40;97428.69;4162695;28;19920;-72
2024/04/01 03:20:42;;;;;;;;;;;;;;;14.32;64.97;97421.47;4162499;28;19940;-71
2024/04/01 03:22:42;;;;;;;;;;;;;;;14.33;64.76;97423.09;4162888;28;19916;-71
2024/04/01 03:24:43;;;;;;;;;;;;;;;14.37;64.73;97405.44;4162166;28;20004;-71
2024/04/01 03:26:45;;;;;;;;;;;;;;;14.31;65.34;97403.69;4162239;28;20002;-71
2024/04/01 03:28:45;;;;;;;;;;;;;;;14.35;65.02;97405.69;4162327;28;20007;-72
2024/04/01 03:30:46;;;;;;;;;;;;;;;14.34;64.86;97414.00;4162993;28;19994;-71
2024/04/01 03:32:47;;;;;;;;;;;;;;;14.35;64.74;97426.38;4162902;28;19917;-72
2024/04/01 03:34:48;;;;;;;;;;;;;;;14.39;64.80;97421.34;4162991;28;19909;-71
2024/04/01 03:36:52;;;;;;;;;;;;;;;14.25;65.62;97421.56;4163171;28;19936;-72
2024/04/01 03:38:53;;;;;;;;;;;;;;;14.27;65.43;97418.63;4162586;28;19912;-71
2024/04/01 03:40:53;;;;;;;;;;;;;;;14.35;64.89;97437.94;4163975;28;20062;-71
2024/04/01 03:42:54;;;;;;;;;;;;;;;14.14;64.83;97438.50;4164963;28;20431;-72
2024/04/01 03:44:54;;;;;;;;;;;;;;;14.33;64.66;97439.22;4155784;28;19910;-71
2024/04/01 03:46:54;;;;;;;;;;;;;;;14.11;65.20;97436.28;4146676;28;19909;-71
2024/04/01 03:48:54;;;;;;;;;;;;;;;14.04;65.47;97450.63;4145934;28;19916;-72
2024/04/01 03:50:55;;;;;;;;;;;;;;;14.16;65.34;97456.03;4146681;28;19910;-71
2024/04/01 03:52:55;;;;;;;;;;;;;;;14.14;65.34;97451.91;4146775;28;19917;-71
2024/04/01 03:54:55;;;;;;;;;;;;;;;13.95;65.67;97433.19;4146447;28;20465;-71
2024/04/01 03:56:56;;;;;;;;;;;;;;;14.05;65.69;97443.41;4147902;28;20004;-71
2024/04/01 03:58:56;;;;;;;;;;;;;;;14.13;65.19;97445.75;4147644;28;19920;-71
2024/04/01 04:00:56;;;;;;;;;;;;;;;14.06;65.49;97453.09;4146391;28;20600;-71
2024/04/01 04:02:57;;;;;;;;;;;;;;;13.90;65.92;97462.63;4149071;28;19915;-72
2024/04/01 04:04:57;;;;;;;;;;;;;;;13.87;66.11;97463.91;4146650;28;19910;-72
2024/04/01 04:06:58;;;;;;;;;;;;;;;13.88;65.99;97470.94;4146708;28;19940;-71
2024/04/01 04:08:58;;;;;;;;;;;;;;;13.98;65.45;97464.97;4150813;28;20557;-71
2024/04/01 04:10:59;;;;;;;;;;;;;;;14.03;65.40;97459.72;4154287;28;19915;-72
2024/04/01 04:12:59;;;;;;;;;;;;;;;13.84;66.12;97461.69;4162893;28;19938;-71
2024/04/01 04:15:01;;;;;;;;;;;;;;;13.66;66.65;97451.00;4157926;28;19912;-71
2024/04/01 04:17:01;;;;;;;;;;;;;;;13.68;66.37;97432.81;4158493;28;20285;-72
2024/04/01 04:19:01;;;;;;;;;;;;;;;13.72;66.25;97423.22;4162270;28;19913;-71
2024/04/01 04:21:02;;;;;;;;;;;;;;;13.73;66.03;97431.06;4161135;28;19913;-71
2024/04/01 04:23:02;;;;;;;;;;;;;;;13.36;67.23;97446.41;4163002;28;19956;-71
2024/04/01 04:25:03;;;;;;;;;;;;;;;13.68;66.44;97444.34;4162680;28;19913;-71
2024/04/01 04:27:03;;;;;;;;;;;;;;;13.64;66.52;97442.34;4163124;28;20144;-71
2024/04/01 04:29:04;;;;;;;;;;;;;;;13.70;65.99;97430.69;4162768;28;19936;-71
2024/04/01 04:31:06;;;;;;;;;;;;;;;13.74;65.91;97426.50;4167730;28;19947;-73
2024/04/01 04:33:12;;;;;;;;;;;;;;;13.90;65.47;97435.78;4176327;28;19970;-72
2024/04/01 04:35:13;;;;;;;;;;;;;;;13.88;65.49;97429.81;4175456;28;19913;-72
2024/04/01 04:37:15;;;;;;;;;;;;;;;13.87;65.68;97431.69;4163033;28;20379;-72
2024/04/01 04:39:24;;;;;;;;;;;;;;;13.90;65.83;97430.41;4161888;28;20299;-72
2024/04/01 04:41:24;;;;;;;;;;;;;;;13.94;65.38;97447.69;4146421;28;19909;-71
2024/04/01 04:43:25;;;;;;;;;;;;;;;13.89;65.30;97444.88;4146899;28;19976;-71
2024/04/01 04:45:25;;;;;;;;;;;;;;;13.60;66.07;97439.31;4163001;28;20377;-72
2024/04/01 04:47:26;;;;;;;;;;;;;;;13.60;66.36;97446.56;4163775;28;19909;-72
2024/04/01 04:49:28;;;;;;;;;;;;;;;13.73;66.25;97438.28;4153014;28;19917;-71
2024/04/01 04:51:29;;;;;;;;;;;;;;;13.72;65.96;97417.84;4154492;28;19955;-71
2024/04/01 04:53:29;;;;;;;;;;;;;;;13.70;66.13;97396.63;4146639;28;20358;-71
2024/04/01 04:55:29;;;;;;;;;;;;;;;13.76;66.01;97407.47;4145769;28;19955;-73
2024/04/01 04:57:30;;;;;;;;;;;;;;;13.73;66.22;97414.13;4150786;28;19912;-72
2024/04/01 04:59:33;;;;;;;;;;;;;;;13.74;65.87;97426.50;4151190;28;19920;-72
2024/04/01 05:01:34;;;;;;;;;;;;;;;13.67;66.26;97428.47;4157788;28;20328;-71
2024/04/01 05:03:35;;;;;;;;;;;;;;;13.69;65.83;97429.06;4167513;28;19913;-72
2024/04/01 05:05:36;;;;;;;;;;;;;;;13.66;66.23;97416.09;4158760;28;19909;-71
2024/04/01 05:07:36;;;;;;;;;;;;;;;13.47;66.67;97426.88;4148248;28;19963;-72
2024/04/01 05:09:36;;;;;;;;;;;;;;;13.20;67.53;97467.44;4155549;28;19917;-72
2024/04/01 05:11:37;;;;;;;;;;;;;;;13.14;68.22;97479.06;4156549;28;19948;-71
2024/04/01 05:13:37;;;;;;;;;;;;;;;13.10;68.00;97483.25;4154632;28;19960;-71
2024/04/01 05:15:38;;;;;;;;;;;;;;;12.92;68.74;97498.28;4156535;28;19955;-72
2024/04/01 05:17:38;;;;;;;;;;;;;;;12.58;70.52;97529.94;4156999;28;19996;-72
2024/04/01 05:19:38;;;;;;;;;;;;;;;12.70;70.54;97539.94;4156481;28;19913;-73
2024/04/01 05:21:39;;;;;;;;;;;;;;;13.03;69.60;97520.84;4152829;28;19917;-71
2024/04/01 05:23:39;;;;;;;;;;;;;;;12.93;69.15;97513.34;4165203;28;19996;-71
2024/04/01 05:25:39;;;;;;;;;;;;;;;12.56;70.99;97510.59;4151311;28;21091;-71
2024/04/01 05:27:40;;;;;;;;;;;;;;;12.80;70.69;97492.00;4145733;28;19921;-71
2024/04/01 05:29:40;;;;;;;;;;;;;;;12.70;70.60;97494.38;4147235;28;19944;-71
2024/04/01 05:31:40;;;;;;;;;;;;;;;12.70;71.11;97519.34;4153592;28;20012;-71
2024/04/01 05:33:41;;;;;;;;;;;;;;;12.42;72.03;97538.53;4156051;28;20003;-71
2024/04/01 05:35:42;;;;;;;;;;;;;;;12.26;73.10;97546.06;4161227;28;20007;-72
2024/04/01 05:37:46;;;;;;;;;;;;;;;12.33;73.10;97546.84;4161864;28;19917;-71
2024/04/01 05:39:46;;;;;;;;;;;;;;;12.03;74.41;97543.94;4146844;28;20032;-72
2024/04/01 05:41:47;;;;;;;;;;;;;;;12.07;75.00;97563.06;4148127;28;20381;-72
2024/04/01 05:43:48;;;;;;;;;;;;;;;11.90;75.78;97568.91;4156069;28;19975;-72
2024/04/01 05:45:49;;;;;;;;;;;;;;;11.86;76.88;97591.78;4151577;28;19916;-72
2024/04/01 05:47:51;;;;;;;;;;;;;;;11.98;76.74;97591.94;4165164;28;19913;-71
2024/04/01 05:49:52;;;;;;;;;;;;;;;11.99;77.31;97583.72;4164276;28;20263;-73
2024/04/01 05:51:52;;;;;;;;;;;;;;;12.22;76.07;97609.13;4161264;28;19959;-71
2024/04/01 05:53:52;;;;;;;;;;;;;;;12.23;76.05;97599.25;4164641;28;19962;-71
2024/04/01 05:55:53;;;;;;;;;;;;;;;12.19;76.17;97603.38;4164804;28;19995;-71
2024/04/01 05:57:53;;;;;;;;;;;;;;;12.12;77.43;97601.56;4159415;28;19978;-71
2024/04/01 05:59:55;;;;;;;;;;;;;;;11.99;77.61;97597.13;4165193;28;19913;-72
2024/04/01 06:01:56;;;;;;;;;;;;;;;11.84;78.83;97596.53;4163344;28;19913;-71
2024/04/01 06:03:56;;;;;;;;;;;;;;;11.94;78.85;97588.03;4166735;28;19998;-71
2024/04/01 06:05:57;;;;;;;;;;;;;;;11.78;79.64;97598.19;4165222;28;20365;-72
2024/04/01 06:07:59;;;;;;;;;;;;;;;11.90;79.34;97606.41;4156746;28;20373;-71
2024/04/01 06:10:00;;;;;;;;;;;;;;;12.09;78.13;97614.56;4158333;28;20481;-71
2024/04/01 06:12:02;;;;;;;;;;;;;;;12.01;78.91;97604.91;4155397;28;19944;-72
2024/04/01 06:14:03;;;;;;;;;;;;;;;11.81;79.65;97608.47;4162926;28;19963;-72
2024/04/01 06:16:04;;;;;;;;;;;;;;;11.91;79.62;97601.84;4161932;28;19909;-71
2024/04/01 06:18:04;;;;;;;;;;;;;;;12.01;78.92;97599.56;4163844;28;19944;-72
2024/04/01 06:20:05;;;;;;;;;;;;;;;11.81;79.83;97597.78;4170421;28;19916;-71
2024/04/01 06:22:05;;;;;;;;;;;;;;;11.83;80.04;97594.88;4170053;28;20319;-72
2024/04/01 06:24:06;;;;;;;;;;;;;;;12.16;78.50;97583.22;4169038;28;19958;-71
2024/04/01 06:26:06;;;;;;;;;;;;;;;11.89;79.00;97596.72;4159171;28;19917;-70
2024/04/01 06:28:06;;;;;;;;;;;;;;;11.96;78.98;97594.81;4163877;28;20590;-70
2024/04/01 06:30:07;;;;;;;;;;;;;;;12.14;78.89;97606.69;4163995;28;19925;-71
2024/04/01 06:32:07;;;;;;;;;;;;;;;12.32;77.46;97598.75;4163821;28;20004;-71
2024/04/01 06:34:08;;;;;;;;;;;;;;;12.13;78.44;97626.47;4164115;28;19916;-71
2024/04/01 06:36:09;;;;;;;;;;;;;;;12.42;77.77;97630.44;4163788;28;20518;-72
2024/04/01 06:38:10;;;;;;;;;;;;;;;12.47;77.30;97635.13;4163504;28;19950;-72
2024/04/01 06:40:10;;;;;;;;;;;;;;;12.41;77.20;97650.25;4163519;28;19999;-71
2024/04/01 06:42:10;;;;;;;;;;;;;;;12.32;77.29;97648.84;4163776;28;19924;-71
2024/04/01 06:44:11;;;;;;;;;;;;;;;12.04;79.30;97654.53;4162619;28;19962;-71
2024/04/01 06:46:11;;;;;;;;;;;;;;;12.02;79.20;97663.59;4164085;28;19963;-72
2024/04/01 06:48:11;;;;;;;;;;;;;;;12.25;78.47;97670.31;4164526;28;19956;-72
2024/04/01 06:50:12;;;;;;;;;;;;;;;12.45;77.85;97672.06;4151293;28;20406;-72
2024/04/01 06:52:12;;;;;;;;;;;;;;;12.53;76.72;97669.13;4147666;28;20389;-71
2024/04/01 06:54:12;;;;;;;;;;;;;;;12.44;77.35;97673.09;4156425;28;19917;-72
2024/04/01 06:56:13;;;;;;;;;;;;;;;12.10;77.34;97675.94;4156291;28;20333;-72
2024/04/01 06:58:14;;;;;;;;;;;;;;;12.13;78.41;97690.75;4160404;28;19948;-73
2024/04/01 07:00:15;;;;;;;;;;;;;;;12.37;77.78;97685.72;4163715;28;19909;-71
2024/04/01 07:02:15;;;;;;;;;;;;;;;12.32;77.32;97689.84;4163652;28;19963;-71
2024/04/01 07:04:15;;;;;;;;;;;;;;;12.08;78.47;97698.63;4148588;28;19975;-71
2024/04/01 07:06:16;;;;;;;;;;;;;;;12.00;78.58;97708.50;4159212;28;20328;-70
2024/04/01 07:08:17;;;;;;;;;;;;;;;12.08;78.82;97714.69;4149266;28;19943;-72
2024/04/01 07:10:18;;;;;;;;;;;;;;;12.06;79.08;97711.38;4146660;28;19944;-72
2024/04/01 07:12:19;;;;;;;;;;;;;;;11.92;79.04;97716.75;4147899;28;19955;-70
2024/04/01 07:14:20;;;;;;;;;;;;;;;12.00;78.66;97713.06;4148131;28;19920;-72
2024/04/01 07:16:20;;;;;;;;;;;;;;;12.10;78.75;97717.94;4147931;28;19999;-71
2024/04/01 07:18:21;;;;;;;;;;;;;;;12.27;77.91;97716.47;4146498;28;19999;-72
2024/04/01 07:20:21;;;;;;;;;;;;;;;12.14;78.03;97703.13;4147578;28;20251;-71
2024/04/01 07:22:21;;;;;;;;;;;;;;;12.30;77.31;97697.28;4149538;28;20016;-73
2024/04/01 07:24:22;;;;;;;;;;;;;;;12.24;77.50;97703.50;4148648;28;19910;-72
2024/04/01 07:26:22;;;;;;;;;;;;;;;12.13;78.21;97734.44;4146664;28;20396;-71
2024/04/01 07:28:22;;;;;;;;;;;;;;;11.94;79.94;97743.31;4147730;28;19916;-72
2024/04/01 07:30:24;;;;;;;;;;;;;;;11.93;79.74;97739.81;4147604;28;20444;-72
2024/04/01 07:32:25;;;;;;;;;;;;;;;12.01;79.36;97742.28;4147494;28;19910;-71
2024/04/01 07:34:25;;;;;;;;;;;;;;;11.99;79.88;97747.06;4155109;28;19913;-72
2024/04/01 07:36:27;;;;;;;;;;;;;;;12.05;79.24;97741.88;4153190;28;19923;-73
2024/04/01 07:38:27;;;;;;;;;;;;;;;12.07;79.63;97745.16;4155044;28;20438;-71
2024/04/01 07:40:27;;;;;;;;;;;;;;;11.90;79.60;97739.41;4154886;28;19910;-70
2024/04/01 07:42:28;;;;;;;;;;;;;;;11.81;80.56;97753.03;4148468;28;19996;-71
2024/04/01 07:44:28;;;;;;;;;;;;;;;12.12;79.73;97750.72;4146654;28;19932;-73
2024/04/01 07:46:28;;;;;;;;;;;;;;;12.01;80.15;97753.00;4147284;28;19956;-71
2024/04/01 07:48:29;;;;;;;;;;;;;;;12.30;78.50;97750.84;4146601;28;19917;-71
2024/04/01 07:50:29;;;;;;;;;;;;;;;11.93;79.33;97755.88;4147370;28;19920;-71
2024/04/01 07:52:30;;;;;;;;;;;;;;;12.20;79.19;97766.53;4147847;28;19971;-71
2024/04/01 07:54:30;;;;;;;;;;;;;;;12.00;78.93;97777.31;4148000;28;20029;-71
2024/04/01 07:56:31;;;;;;;;;;;;;;;11.75;80.23;97795.84;4147530;28;19955;-72
2024/04/01 07:58:31;;;;;;;;;;;;;;;11.78;79.48;97784.75;4145958;28;20267;-71
2024/04/01 08:00:31;;;;;;;;;;;;;;;11.97;78.47;97783.91;4147755;28;19916;-70
2024/04/01 08:02:31;;;;;;;;;;;;;;;12.13;78.39;97803.25;4147312;28;20546;-71
2024/04/01 08:04:32;;;;;;;;;;;;;;;11.99;78.02;97819.34;4145837;28;19913;-71
2024/04/01 08:06:33;;;;;;;;;;;;;;;11.99;77.23;97814.00;4146952;28;19956;-70
2024/04/01 08:08:33;;;;;;;;;;;;;;;12.06;77.46;97823.88;4146493;28;20047;-71
2024/04/01 08:10:34;;;;;;;;;;;;;;;12.12;77.17;97828.38;4149175;28;19921;-71
2024/04/01 08:12:34;;;;;;;;;;;;;;;12.06;76.45;97834.56;4149392;28;20380;-71
2024/04/01 08:14:35;;;;;;;;;;;;;;;12.30;75.78;97841.94;4146575;28;19973;-72
2024/04/01 08:16:35;;;;;;;;;;;;;;;12.33;74.85;97843.38;4147457;28;19916;-73
2024/04/01 08:18:36;;;;;;;;;;;;;;;12.17;75.76;97841.97;4149771;28;19913;-72
2024/04/01 08:20:36;;;;;;;;;;;;;;;11.94;75.97;97863.81;4153484;28;19914;-72
2024/04/01 08:22:36;;;;;;;;;;;;;;;11.83;75.94;97867.91;4152519;28;19989;-72
2024/04/01 08:24:37;;;;;;;;;;;;;;;11.71;75.92;97879.22;4152588;28;19969;-71
2024/04/01 08:26:38;;;;;;;;;;;;;;;11.79;75.17;97894.28;4151513;28;19924;-72
2024/04/01 08:28:38;;;;;;;;;;;;;;;11.90;74.30;97898.22;4148195;28;19959;-72
2024/04/01 08:30:39;;;;;;;;;;;;;;;12.04;73.21;97906.25;4146735;28;19913;-71
2024/04/01 08:32:39;;;;;;;;;;;;;;;11.66;73.74;97915.69;4145304;28;20566;-71
2024/04/01 08:34:40;;;;;;;;;;;;;;;11.71;73.64;97922.06;4149003;28;19910;-72
2024/04/01 08:36:40;;;;;;;;;;;;;;;11.99;72.74;97930.97;4145291;28;19909;-71
2024/04/01 08:38:42;;;;;;;;;;;;;;;11.68;72.89;97935.03;4143782;28;19914;-72
2024/04/01 08:40:50;;;;;;;;;;;;;;;11.80;72.49;97936.06;4146298;28;19910;-72
2024/04/01 08:42:58;;;;;;;;;;;;;;;11.73;73.41;97945.97;4146203;28;20067;-72
2024/04/01 08:45:01;;;;;;;;;;;;;;;11.93;73.13;97948.66;4145988;28;19905;-72
2024/04/01 08:47:02;;;;;;;;;;;;;;;11.86;73.24;97945.16;4146128;28;19910;-72
2024/04/01 08:49:03;;;;;;;;;;;;;;;11.96;73.10;97953.59;4144575;28;19916;-73
2024/04/01 08:51:04;;;;;;;;;;;;;;;11.75;73.86;97962.66;4146373;28;19909;-71
2024/04/01 08:53:11;;;;;;;;;;;;;;;11.85;73.86;97963.03;4146570;28;19978;-72
2024/04/01 08:55:11;;;;;;;;;;;;;;;11.91;73.99;97966.75;4146148;28;19910;-72
2024/04/01 08:57:11;;;;;;;;;;;;;;;11.89;73.60;97968.00;4145621;28;19940;-72
2024/04/01 08:59:12;;;;;;;;;;;;;;;11.83;74.60;97969.63;4145160;28;19917;-72
2024/04/01 09:01:12;;;;;;;;;;;;;;;11.97;74.18;97971.34;4146023;28;19905;-71
2024/04/01 09:03:12;;;;;;;;;;;;;;;12.00;74.29;97965.56;4145629;28;19968;-72
2024/04/01 09:05:13;;;;;;;;;;;;;;;11.85;74.64;97973.75;4146175;28;20366;-71
2024/04/01 09:07:15;;;;;;;;;;;;;;;12.00;75.13;97976.28;4146009;28;19917;-71
2024/04/01 09:09:15;;;;;;;;;;;;;;;11.98;75.01;97981.03;4145233;28;20270;-72
2024/04/01 09:11:15;;;;;;;;;;;;;;;12.02;75.41;97979.59;4146170;28;20024;-72
2024/04/01 09:13:16;;;;;;;;;;;;;;;11.99;75.24;97980.00;4145917;28;19909;-71
2024/04/01 09:15:18;;;;;;;;;;;;;;;11.92;75.44;97981.81;4146282;28;20374;-72
2024/04/01 09:17:28;;;;;;;;;;;;;;;11.97;75.42;97986.53;4152141;28;19913;-73
2024/04/01 09:19:31;;;;;;;;;;;;;;;11.76;76.07;97982.19;4154172;28;19916;-73
2024/04/01 09:21:32;;;;;;;;;;;;;;;11.97;75.83;97981.19;4149188;28;19966;-71
2024/04/01 09:23:33;;;;;;;;;;;;;;;12.04;75.00;97983.91;4149420;28;20507;-71
2024/04/01 09:25:33;;;;;;;;;;;;;;;11.99;75.27;97985.38;4149469;28;19952;-71
2024/04/01 09:27:34;;;;;;;;;;;;;;;12.41;74.26;98000.41;4148771;28;19968;-71
2024/04/01 09:29:34;;;;;;;;;;;;;;;12.20;74.53;98002.25;4148792;28;20096;-72
2024/04/01 09:31:34;;;;;;;;;;;;;;;12.04;74.80;97998.16;4159268;28;20518;-72
2024/04/01 09:33:35;;;;;;;;;;;;;;;12.25;73.55;97997.13;4164536;28;20043;-71
2024/04/01 09:35:36;;;;;;;;;;;;;;;12.07;73.22;97994.22;4163574;28;20003;-71
2024/04/01 09:37:36;;;;;;;;;;;;;;;12.29;72.84;98002.88;4165070;28;20349;-71
2024/04/01 09:39:36;;;;;;;;;;;;;;;12.50;72.18;98001.84;4164473;28;19909;-72
2024/04/01 09:41:37;;;;;;;;;;;;;;;12.38;70.88;98019.56;4165575;28;19913;-71
2024/04/01 09:43:37;;;;;;;;;;;;;;;12.30;69.22;98023.28;4165402;28;19955;-72
2024/04/01 09:45:38;;;;;;;;;;;;;;;12.74;68.42;98027.19;4165061;28;19944;-72
2024/04/01 09:47:40;;;;;;;;;;;;;;;12.87;67.47;98026.34;4165212;28;19979;-72
2024/04/01 09:49:43;;;;;;;;;;;;;;;12.33;67.95;98039.78;4164412;28;19920;-72
2024/04/01 09:51:44;;;;;;;;;;;;;;;12.46;68.25;98046.19;4165315;28;20012;-71
2024/04/01 09:53:45;;;;;;;;;;;;;;;12.51;67.41;98050.94;4164767;28;19909;-72
2024/04/01 09:55:48;;;;;;;;;;;;;;;12.45;68.00;98044.53;4165065;28;19909;-71
2024/04/01 09:57:49;;;;;;;;;;;;;;;12.27;68.35;98051.31;4164915;28;20387;-71
2024/04/01 09:59:56;;;;;;;;;;;;;;;12.47;67.12;98062.03;4164454;28;19909;-73
2024/04/01 10:01:59;;;;;;;;;;;;;;;12.37;68.16;98071.53;4165205;28;19955;-73
2024/04/01 10:04:03;;;;;;;;;;;;;;;12.19;68.03;98075.59;4164950;28;20483;-72
2024/04/01 10:06:06;;;;;;;;;;;;;;;12.21;68.25;98076.22;4165507;28;20288;-72
2024/04/01 10:08:25;;;;;;;;;;;;;;;12.63;66.96;98081.41;4163711;28;19917;-73
2024/04/01 10:10:34;;;;;;;;;;;;;;;12.90;66.54;98073.34;4163538;28;19913;-71
2024/04/01 10:12:41;;;;;;;;;;;;;;;12.63;66.39;98084.94;4165809;28;20392;-72
2024/04/01 10:14:54;;;;;;;;;;;;;;;12.68;66.00;98083.47;4173410;28;19913;-72
2024/04/01 10:17:14;;;;;;;;;;;;;;;12.52;66.06;98085.56;4174080;28;19972;-72
2024/04/01 10:19:17;;;;;;;;;;;;;;;12.53;66.30;98087.19;4174391;28;19947;-72
2024/04/01 10:21:26;;;;;;;;;;;;;;;12.33;66.15;98098.72;4176772;28;19940;-71
2024/04/01 10:23:46;;;;;;;;;;;;;;;12.58;66.16;98111.53;4177371;28;19955;-72
2024/04/01 10:25:53;;;;;;;;;;;;;;;12.50;66.05;98102.88;4173759;28;19909;-72
2024/04/01 10:27:56;;;;;;;;;;;;;;;12.07;66.17;98123.59;4164815;28;20420;-71
2024/04/01 10:30:03;;;;;;;;;;;;;;;12.35;66.34;98127.16;4165313;28;19920;-71
2024/04/01 10:32:39;;;;;;;;;;;;;;;12.45;65.68;98125.75;4165733;28;20205;-72